createdAt,value
2018-05-10T00:01:07.920Z,94682.43
2018-05-10T00:03:36.158Z,94674.26
2018-05-10T00:06:04.397Z,94673.97
2018-05-10T00:08:33.390Z,94681.27
2018-05-10T00:11:02.402Z,94673.56
2018-05-10T00:13:30.642Z,94674.92
2018-05-10T00:15:58.865Z,94668.69
2018-05-10T00:18:27.109Z,94670.28
2018-05-10T00:20:56.105Z,94671.09
2018-05-10T00:23:25.122Z,94664.49
2018-05-10T00:25:53.386Z,94666.56
2018-05-10T00:28:22.383Z,94664.63
2018-05-10T00:30:50.633Z,94669.09
2018-05-10T00:33:18.872Z,94668.91
2018-05-10T00:35:47.133Z,94672.03
2018-05-10T00:38:15.362Z,94669.15
2018-05-10T00:40:43.688Z,94671.52
2018-05-10T00:43:11.930Z,94673.91
2018-05-10T00:45:40.929Z,94669.03
2018-05-10T00:48:09.182Z,94671.67
2018-05-10T00:50:37.415Z,94667.50
2018-05-10T00:53:05.671Z,94669.70
2018-05-10T00:55:33.902Z,94671.28
2018-05-10T00:58:02.138Z,94667.66
2018-05-10T01:00:30.374Z,94666.19
2018-05-10T01:02:59.388Z,94671.20
2018-05-10T01:05:27.621Z,94670.39
2018-05-10T01:07:57.378Z,94671.06
2018-05-10T01:10:25.605Z,94678.11
2018-05-10T01:12:53.849Z,94680.07
2018-05-10T01:15:22.082Z,94680.16
2018-05-10T01:17:51.103Z,94681.02
2018-05-10T01:20:19.364Z,94675.49
2018-05-10T01:22:47.597Z,94676.17
2018-05-10T01:25:15.833Z,94678.33
2018-05-10T01:27:44.069Z,94680.30
2018-05-10T01:30:13.074Z,94679.71
2018-05-10T01:32:42.078Z,94677.69
2018-05-10T01:35:27.898Z,94681.63
2018-05-10T01:37:56.150Z,94684.19
2018-05-10T01:40:24.382Z,94678.81
2018-05-10T01:42:52.613Z,94685.73
2018-05-10T01:45:21.058Z,94677.21
2018-05-10T01:47:50.065Z,94683.66
2018-05-10T01:50:18.298Z,94683.12
2018-05-10T01:52:47.387Z,94682.90
2018-05-10T01:55:15.624Z,94677.61
2018-05-10T01:57:43.858Z,94683.16
2018-05-10T02:00:12.866Z,94684.95
2018-05-10T02:02:41.133Z,94687.20
2018-05-10T02:05:10.131Z,94686.22
2018-05-10T02:07:39.141Z,94683.61
2018-05-10T02:10:07.377Z,94694.17
2018-05-10T02:12:35.608Z,94689.23
2018-05-10T02:15:03.853Z,94683.70
2018-05-10T02:17:32.093Z,94687.80
2018-05-10T02:20:00.325Z,94693.25
2018-05-10T02:22:28.574Z,94684.84
2018-05-10T02:24:57.589Z,94687.82
2018-05-10T02:27:25.818Z,94687.27
2018-05-10T02:29:54.078Z,94683.09
2018-05-10T02:32:22.316Z,94679.45
2018-05-10T02:34:51.627Z,94687.05
2018-05-10T02:37:19.846Z,94686.77
2018-05-10T02:39:48.079Z,94691.50
2018-05-10T02:42:16.318Z,94687.72
2018-05-10T02:44:45.322Z,94691.58
2018-05-10T02:47:13.578Z,94693.45
2018-05-10T02:49:41.907Z,94698.99
2018-05-10T02:52:10.046Z,94691.52
2018-05-10T02:54:39.051Z,94700.69
2018-05-10T02:57:07.285Z,94697.59
2018-05-10T02:59:35.530Z,94700.72
2018-05-10T03:02:03.776Z,94705.98
2018-05-10T03:04:32.022Z,94702.77
2018-05-10T03:07:01.032Z,94708.67
2018-05-10T03:09:30.033Z,94709.07
2018-05-10T03:11:59.031Z,94706.02
2018-05-10T03:14:27.262Z,94706.45
2018-05-10T03:16:55.509Z,94699.45
2018-05-10T03:19:23.742Z,94695.55
2018-05-10T03:21:52.750Z,94699.45
2018-05-10T03:24:20.985Z,94699.28
2018-05-10T03:26:49.290Z,94703.53
2018-05-10T03:29:18.303Z,94704.68
2018-05-10T03:31:46.538Z,94701.80
2018-05-10T03:34:14.778Z,94697.02
2018-05-10T03:36:43.010Z,94706.02
2018-05-10T03:39:11.281Z,94702.13
2018-05-10T03:41:40.355Z,94698.81
2018-05-10T03:44:08.550Z,94704.14
2018-05-10T03:46:37.550Z,94704.98
2018-05-10T03:49:05.781Z,94704.61
2018-05-10T03:51:34.297Z,94705.91
2018-05-10T03:54:03.294Z,94711.55
2018-05-10T03:56:32.293Z,94702.39
2018-05-10T03:59:00.538Z,94706.05
2018-05-10T04:01:28.772Z,94712.63
2018-05-10T04:07:26.240Z,94716.79
2018-05-10T04:10:12.339Z,94706.53
2018-05-10T04:12:40.589Z,94712.83
2018-05-10T04:15:08.837Z,94705.72
2018-05-10T04:17:37.077Z,94717.77
2018-05-10T04:20:05.309Z,94712.80
2018-05-10T04:22:34.322Z,94719.11
2018-05-10T04:25:02.569Z,94725.27
2018-05-10T04:27:31.578Z,94731.62
2018-05-10T04:30:00.603Z,94734.53
2018-05-10T04:32:28.841Z,94736.88
2018-05-10T04:34:57.842Z,94741.19
2018-05-10T04:37:26.858Z,94738.41
2018-05-10T04:39:55.081Z,94737.27
2018-05-10T04:42:23.313Z,94734.99
2018-05-10T04:44:51.557Z,94740.56
2018-05-10T04:47:20.553Z,94737.18
2018-05-10T04:49:49.566Z,94736.27
2018-05-10T04:52:17.822Z,94733.29
2018-05-10T04:54:46.836Z,94736.94
2018-05-10T04:57:15.066Z,94742.28
2018-05-10T04:59:43.367Z,94740.58
2018-05-10T05:02:12.361Z,94743.75
2018-05-10T05:04:40.594Z,94745.80
2018-05-10T05:07:08.845Z,94745.54
2018-05-10T05:09:37.077Z,94746.78
2018-05-10T05:12:06.093Z,94745.28
2018-05-10T05:14:34.326Z,94745.71
2018-05-10T05:17:03.368Z,94752.19
2018-05-10T05:19:31.608Z,94751.44
2018-05-10T05:22:00.610Z,94746.45
2018-05-10T05:24:30.014Z,94745.78
2018-05-10T05:26:59.077Z,94749.05
2018-05-10T05:29:27.253Z,94751.08
2018-05-10T05:31:55.505Z,94743.64
2018-05-10T05:34:23.739Z,94742.76
2018-05-10T05:36:52.825Z,94742.55
2018-05-10T05:39:21.830Z,94750.48
2018-05-10T05:41:50.069Z,94757.03
2018-05-10T05:44:18.322Z,94758.94
2018-05-10T05:46:46.898Z,94760.84
2018-05-10T05:49:15.853Z,94760.97
2018-05-10T05:51:44.854Z,94768.12
2018-05-10T05:54:13.104Z,94775.34
2018-05-10T05:56:42.110Z,94770.08
2018-05-10T05:59:11.117Z,94772.91
2018-05-10T06:01:39.350Z,94779.09
2018-05-10T06:04:07.598Z,94782.11
2018-05-10T06:06:35.829Z,94780.86
2018-05-10T06:09:07.900Z,94784.67
2018-05-10T06:11:36.894Z,94790.59
2018-05-10T06:14:05.126Z,94800.01
2018-05-10T06:16:33.370Z,94799.48
2018-05-10T06:19:01.618Z,94793.89
2018-05-10T06:21:30.635Z,94799.73
2018-05-10T06:23:58.881Z,94796.67
2018-05-10T06:26:27.895Z,94800.56
2018-05-10T06:28:56.127Z,94804.05
2018-05-10T06:31:24.430Z,94802.88
2018-05-10T06:33:53.447Z,94808.74
2018-05-10T06:36:22.426Z,94811.09
2018-05-10T06:38:50.674Z,94811.70
2018-05-10T06:41:18.902Z,94813.76
2018-05-10T06:43:47.444Z,94823.47
2018-05-10T06:46:16.444Z,94823.58
2018-05-10T06:48:45.446Z,94825.16
2018-05-10T06:51:13.694Z,94828.73
2018-05-10T06:53:42.706Z,94829.73
2018-05-10T06:56:11.702Z,94835.46
2018-05-10T06:58:39.952Z,94840.50
2018-05-10T07:01:08.250Z,94845.27
2018-05-10T07:03:37.262Z,94849.51
2018-05-10T07:06:05.510Z,94851.23
2018-05-10T07:08:34.532Z,94847.21
2018-05-10T07:11:02.771Z,94855.67
2018-05-10T07:13:31.018Z,94856.01
2018-05-10T07:15:59.258Z,94859.47
2018-05-10T07:18:27.501Z,94857.30
2018-05-10T07:20:56.498Z,94864.72
2018-05-10T07:23:25.525Z,94858.34
2018-05-10T07:25:53.761Z,94858.59
2018-05-10T07:28:22.783Z,94862.27
2018-05-10T07:30:51.968Z,94868.92
2018-05-10T07:33:21.062Z,94870.55
2018-05-10T07:35:49.298Z,94879.07
2018-05-10T07:38:17.541Z,94872.23
2018-05-10T07:40:45.819Z,94873.25
2018-05-10T07:43:14.009Z,94879.07
2018-05-10T07:45:42.256Z,94874.45
2018-05-10T07:48:10.817Z,94870.73
2018-05-10T07:50:39.817Z,94871.95
2018-05-10T07:53:08.128Z,94880.72
2018-05-10T07:55:36.293Z,94879.55
2018-05-10T07:58:04.528Z,94881.36
2018-05-10T08:00:33.729Z,94894.75
2018-05-10T08:03:02.729Z,94894.02
2018-05-10T08:05:31.733Z,94893.89
2018-05-10T08:07:59.977Z,94898.69
2018-05-10T08:10:28.432Z,94899.61
2018-05-10T08:12:56.675Z,94899.46
2018-05-10T08:15:24.917Z,94897.16
2018-05-10T08:17:53.997Z,94906.52
2018-05-10T08:20:22.214Z,94902.44
2018-05-10T08:22:50.453Z,94906.02
2018-05-10T08:25:18.698Z,94911.83
2018-05-10T08:27:46.933Z,94917.30
2018-05-10T08:30:15.189Z,94924.77
2018-05-10T08:32:43.425Z,94937.31
2018-05-10T08:35:11.857Z,94924.98
2018-05-10T08:37:40.853Z,94935.40
2018-05-10T08:40:09.083Z,94935.20
2018-05-10T08:42:37.352Z,94941.69
2018-05-10T08:45:05.603Z,94937.53
2018-05-10T08:47:33.834Z,94940.48
2018-05-10T08:50:02.841Z,94939.13
2018-05-10T08:52:31.937Z,94947.31
2018-05-10T08:55:00.937Z,94943.95
2018-05-10T08:57:29.186Z,94947.47
2018-05-10T08:59:57.501Z,94942.36
2018-05-10T09:02:25.664Z,94947.28
2018-05-10T09:04:54.662Z,94947.39
2018-05-10T09:07:22.954Z,94946.88
2018-05-10T09:09:51.921Z,94958.72
2018-05-10T09:12:20.173Z,94946.44
2018-05-10T09:14:48.422Z,94954.76
2018-05-10T09:17:16.661Z,94963.33
2018-05-10T09:19:44.895Z,94960.59
2018-05-10T09:22:13.121Z,94962.47
2018-05-10T09:24:41.363Z,94960.55
2018-05-10T09:27:10.370Z,94955.68
2018-05-10T09:29:39.374Z,94958.75
2018-05-10T09:32:07.613Z,94968.71
2018-05-10T09:34:36.617Z,94957.69
2018-05-10T09:37:05.610Z,94957.95
2018-05-10T09:39:34.762Z,94957.94
2018-05-10T09:42:02.954Z,94961.46
2018-05-10T09:44:31.194Z,94967.50
2018-05-10T09:46:59.638Z,94959.78
2018-05-10T09:49:28.664Z,94970.59
2018-05-10T09:51:56.894Z,94974.40
2018-05-10T09:54:25.148Z,94968.42
2018-05-10T09:56:53.437Z,94971.60
2018-05-10T09:59:21.685Z,94975.16
2018-05-10T10:01:49.913Z,94985.02
2018-05-10T10:04:18.925Z,94988.95
2018-05-10T10:06:47.158Z,94985.05
2018-05-10T10:09:15.408Z,94985.48
2018-05-10T10:11:43.716Z,94993.05
2018-05-10T10:14:11.879Z,94989.45
2018-05-10T10:16:40.126Z,94983.89
2018-05-10T10:19:08.364Z,94994.11
2018-05-10T10:21:37.389Z,94992.48
2018-05-10T10:24:05.629Z,94992.23
2018-05-10T10:26:34.630Z,95003.95
2018-05-10T10:29:02.878Z,94993.11
2018-05-10T10:31:31.106Z,94990.49
2018-05-10T10:33:59.373Z,94995.89
2018-05-10T10:36:27.602Z,95004.69
2018-05-10T10:38:55.846Z,95007.66
2018-05-10T10:41:24.104Z,94994.36
2018-05-10T10:43:52.346Z,95000.24
2018-05-10T10:46:21.350Z,94984.30
2018-05-10T10:48:50.366Z,94999.08
2018-05-10T10:51:18.612Z,94996.18
2018-05-10T10:53:47.656Z,94995.59
2018-05-10T10:56:16.905Z,94998.28
2018-05-10T10:58:45.911Z,94999.94
2018-05-10T11:01:14.147Z,95004.73
2018-05-10T11:03:42.394Z,95003.40
2018-05-10T11:06:10.645Z,95005.80
2018-05-10T11:08:38.890Z,95005.62
2018-05-10T11:11:07.919Z,94997.88
2018-05-10T11:13:36.149Z,95002.75
2018-05-10T11:16:04.373Z,95007.92
2018-05-10T11:18:32.619Z,95005.14
2018-05-10T11:21:01.625Z,94993.30
2018-05-10T11:23:29.878Z,95001.27
2018-05-10T11:25:59.190Z,94997.45
2018-05-10T11:28:27.421Z,94988.56
2018-05-10T11:30:55.658Z,94992.53
2018-05-10T11:33:24.118Z,95003.16
2018-05-10T11:35:53.114Z,95009.60
2018-05-10T11:38:21.357Z,95002.95
2018-05-10T11:40:49.591Z,95017.09
2018-05-10T11:43:17.838Z,95020.09
2018-05-10T11:45:46.852Z,94998.81
2018-05-10T11:48:15.097Z,95012.16
2018-05-10T11:50:44.094Z,95009.27
2018-05-10T11:53:13.101Z,95017.33
2018-05-10T11:55:41.336Z,95018.56
2018-05-10T11:58:10.350Z,95023.95
2018-05-10T12:00:39.347Z,95025.35
2018-05-10T12:03:08.349Z,95020.46
2018-05-10T12:05:36.603Z,95029.58
2018-05-10T12:08:04.834Z,95029.03
2018-05-10T12:10:33.090Z,95031.66
2018-05-10T12:13:01.330Z,95027.58
2018-05-10T12:15:29.562Z,95033.86
2018-05-10T12:17:57.928Z,95038.23
2018-05-10T12:20:26.172Z,95026.26
2018-05-10T12:25:29.751Z,95048.70
2018-05-10T12:27:57.962Z,95048.36
2018-05-10T12:30:27.038Z,95048.15
2018-05-10T12:32:55.222Z,95047.48
2018-05-10T12:35:24.253Z,95059.61
2018-05-10T12:37:52.477Z,95060.29
2018-05-10T12:40:20.721Z,95059.95
2018-05-10T12:42:48.950Z,95057.72
2018-05-10T12:45:17.949Z,95054.72
2018-05-10T12:47:47.046Z,95075.58
2018-05-10T12:50:16.050Z,95055.53
2018-05-10T12:52:44.418Z,95062.97
2018-05-10T12:55:13.414Z,95070.98
2018-05-10T12:57:41.646Z,95075.52
2018-05-10T13:00:09.895Z,95074.66
2018-05-10T13:02:38.138Z,95073.32
2018-05-10T13:05:07.158Z,95076.06
2018-05-10T13:07:35.401Z,95077.70
2018-05-10T13:10:04.426Z,95085.39
2018-05-10T13:12:32.666Z,95083.62
2018-05-10T13:15:01.671Z,95081.86
2018-05-10T13:17:29.908Z,95073.76
2018-05-10T13:19:58.149Z,95079.30
2018-05-10T13:22:26.394Z,95070.50
2018-05-10T13:24:55.419Z,95085.03
2018-05-10T13:27:23.749Z,95084.05
2018-05-10T13:29:52.851Z,95084.63
2018-05-10T13:32:21.857Z,95085.11
2018-05-10T13:34:50.132Z,95092.91
2018-05-10T13:37:18.388Z,95100.77
2018-05-10T13:39:47.619Z,95094.53
2018-05-10T13:42:15.849Z,95101.34
2018-05-10T13:44:44.102Z,95101.42
2018-05-10T13:47:12.426Z,95103.95
2018-05-10T13:49:40.602Z,95108.37
2018-05-10T13:52:09.602Z,95104.91
2018-05-10T13:54:37.846Z,95113.42
2018-05-10T13:57:06.478Z,95106.80
2018-05-10T13:59:34.697Z,95108.77
2018-05-10T14:02:02.938Z,95111.33
2018-05-10T14:04:31.274Z,95120.78
2018-05-10T14:06:59.418Z,95121.31
2018-05-10T14:09:27.646Z,95134.10
2018-05-10T14:11:55.889Z,95123.91
2018-05-10T14:14:24.893Z,95130.36
2018-05-10T14:16:53.903Z,95131.20
2018-05-10T14:19:22.190Z,95138.25
2018-05-10T14:21:50.446Z,95152.05
2018-05-10T14:24:19.542Z,95142.06
2018-05-10T14:26:47.779Z,95141.39
2018-05-10T14:29:16.028Z,95152.47
2018-05-10T14:31:44.277Z,95153.48
2018-05-10T14:34:12.530Z,95153.55
2018-05-10T14:36:41.530Z,95151.58
2018-05-10T14:39:10.546Z,95150.82
2018-05-10T14:41:38.790Z,95150.92
2018-05-10T14:44:07.803Z,95153.13
2018-05-10T14:46:36.037Z,95160.79
2018-05-10T14:49:05.054Z,95172.90
2018-05-10T14:51:34.057Z,95167.00
2018-05-10T14:54:03.153Z,95171.48
2018-05-10T14:56:31.290Z,95177.50
2018-05-10T14:58:59.539Z,95178.02
2018-05-10T15:01:27.785Z,95176.72
2018-05-10T15:03:56.040Z,95182.56
2018-05-10T15:06:24.274Z,95189.09
2018-05-10T15:08:52.636Z,95191.22
2018-05-10T15:11:20.866Z,95198.17
2018-05-10T15:13:50.178Z,95214.69
2018-05-10T15:16:19.186Z,95197.41
2018-05-10T15:18:48.173Z,95213.08
2018-05-10T15:21:16.450Z,95210.83
2018-05-10T15:23:44.706Z,95207.28
2018-05-10T15:26:13.705Z,95206.20
2018-05-10T15:28:42.711Z,95215.26
2018-05-10T15:31:10.955Z,95226.47
2018-05-10T15:33:39.185Z,95218.19
2018-05-10T15:36:07.433Z,95220.50
2018-05-10T15:38:35.898Z,95220.82
2018-05-10T15:41:04.906Z,95227.16
2018-05-10T15:43:33.957Z,95234.78
2018-05-10T15:46:02.197Z,95227.19
2018-05-10T15:48:30.429Z,95238.30
2018-05-10T15:50:58.665Z,95242.27
2018-05-10T15:53:26.933Z,95247.22
2018-05-10T15:55:55.158Z,95241.80
2018-05-10T15:58:25.209Z,95241.16
2018-05-10T16:00:53.439Z,95244.39
2018-05-10T16:03:21.667Z,95252.70
2018-05-10T16:05:49.910Z,95256.97
2018-05-10T16:08:18.905Z,95255.39
2018-05-10T16:10:47.924Z,95261.68
2018-05-10T16:13:16.153Z,95263.69
2018-05-10T16:15:44.413Z,95262.66
2018-05-10T16:18:12.653Z,95254.36
2018-05-10T16:20:40.882Z,95265.23
2018-05-10T16:23:09.126Z,95266.86
2018-05-10T16:25:37.397Z,95265.31
2018-05-10T16:28:05.646Z,95269.49
2018-05-10T16:30:33.898Z,95263.81
2018-05-10T16:33:02.897Z,95266.53
2018-05-10T16:35:31.910Z,95282.64
2018-05-10T16:38:00.144Z,95281.86
2018-05-10T16:40:29.157Z,95295.91
2018-05-10T16:42:58.170Z,95293.08
2018-05-10T16:45:26.416Z,95312.78
2018-05-10T16:47:54.666Z,95304.38
2018-05-10T16:50:22.920Z,95310.45
2018-05-10T16:52:51.155Z,95314.95
2018-05-10T16:55:20.178Z,95319.88
2018-05-10T16:57:48.456Z,95315.72
2018-05-10T17:00:16.693Z,95322.27
2018-05-10T17:02:46.734Z,95325.11
2018-05-10T17:05:14.970Z,95326.52
2018-05-10T17:07:43.202Z,95332.24
2018-05-10T17:10:11.750Z,95332.08
2018-05-10T17:12:40.745Z,95342.97
2018-05-10T17:15:09.746Z,95350.56
2018-05-10T17:17:37.987Z,95358.41
2018-05-10T17:20:06.234Z,95360.40
2018-05-10T17:22:34.870Z,95362.27
2018-05-10T17:25:03.870Z,95374.28
2018-05-10T17:27:32.888Z,95369.50
2018-05-10T17:30:01.127Z,95378.20
2018-05-10T17:32:30.169Z,95397.91
2018-05-10T17:34:58.422Z,95401.00
2018-05-10T17:37:26.655Z,95408.28
2018-05-10T17:39:54.906Z,95404.73
2018-05-10T17:42:23.161Z,95406.22
2018-05-10T17:44:51.389Z,95415.95
2018-05-10T17:47:19.632Z,95416.59
2018-05-10T17:49:47.869Z,95422.36
2018-05-10T17:52:16.102Z,95429.34
2018-05-10T17:54:44.338Z,95434.53
2018-05-10T17:57:12.579Z,95450.39
2018-05-10T17:59:41.579Z,95447.64
2018-05-10T18:02:10.591Z,95448.86
2018-05-10T18:04:38.851Z,95450.98
2018-05-10T18:07:07.844Z,95459.64
2018-05-10T18:09:36.100Z,95460.69
2018-05-10T18:12:04.335Z,95465.81
2018-05-10T18:14:32.580Z,95476.17
2018-05-10T18:17:00.814Z,95478.43
2018-05-10T18:19:29.046Z,95484.86
2018-05-10T18:21:57.318Z,95492.89
2018-05-10T18:24:25.573Z,95494.90
2018-05-10T18:26:54.587Z,95503.08
2018-05-10T18:29:22.825Z,95494.42
2018-05-10T18:31:51.830Z,95505.61
2018-05-10T18:34:20.858Z,95508.44
2018-05-10T18:36:49.094Z,95512.86
2018-05-10T18:39:18.106Z,95517.78
2018-05-10T18:41:46.351Z,95521.73
2018-05-10T18:44:15.363Z,95531.42
2018-05-10T18:46:44.390Z,95529.49
2018-05-10T18:49:12.642Z,95535.11
2018-05-10T18:51:40.899Z,95537.25
2018-05-10T18:54:09.927Z,95543.17
2018-05-10T18:56:38.153Z,95547.13
2018-05-10T18:59:06.386Z,95559.19
2018-05-10T19:01:34.916Z,95573.16
2018-05-10T19:04:03.098Z,95575.97
2018-05-10T19:06:32.094Z,95583.48
2018-05-10T19:09:01.349Z,95592.41
2018-05-10T19:11:29.590Z,95605.59
2018-05-10T19:13:57.817Z,95604.89
2018-05-10T19:16:26.062Z,95612.39
2018-05-10T19:18:54.320Z,95618.65
2018-05-10T19:21:22.561Z,95625.50
2018-05-10T19:23:50.877Z,95631.50
2018-05-10T19:26:19.055Z,95635.86
2018-05-10T19:28:47.278Z,95642.36
2018-05-10T19:31:15.532Z,95649.37
2018-05-10T19:33:43.764Z,95650.05
2018-05-10T19:36:12.004Z,95661.70
2018-05-10T19:38:40.246Z,95675.80
2018-05-10T19:41:08.480Z,95683.48
2018-05-10T19:43:37.474Z,95684.53
2018-05-10T19:46:05.772Z,95694.25
2018-05-10T19:48:34.011Z,95701.34
2018-05-10T19:51:03.005Z,95710.67
2018-05-10T19:53:32.020Z,95715.83
2018-05-10T19:56:00.262Z,95721.20
2018-05-10T19:58:28.502Z,95729.64
2018-05-10T20:00:56.733Z,95741.62
2018-05-10T20:03:25.743Z,95748.53
2018-05-10T20:05:53.975Z,95753.52
2018-05-10T20:08:22.218Z,95766.69
2018-05-10T20:10:50.454Z,95778.54
2018-05-10T20:13:18.702Z,95779.06
2018-05-10T20:15:46.941Z,95785.23
2018-05-10T20:18:15.173Z,95796.11
2018-05-10T20:20:44.185Z,95797.75
2018-05-10T20:23:12.422Z,95808.09
2018-05-10T20:25:40.653Z,95808.83
2018-05-10T20:28:09.102Z,95838.07
2018-05-10T20:30:38.202Z,95815.23
2018-05-10T20:33:06.438Z,95816.02
2018-05-10T20:35:34.909Z,95823.81
2018-05-10T20:38:03.141Z,95823.13
2018-05-10T20:40:31.400Z,95829.02
2018-05-10T20:43:00.399Z,95839.28
2018-05-10T20:45:29.394Z,95836.62
2018-05-10T20:47:57.645Z,95843.71
2018-05-10T20:50:25.885Z,95844.36
2018-05-10T20:52:54.137Z,95850.09
2018-05-10T20:55:22.373Z,95845.95
2018-05-10T20:57:50.622Z,95848.88
2018-05-10T21:00:18.868Z,95844.46
2018-05-10T21:02:47.086Z,95850.61
2018-05-10T21:05:15.329Z,95854.79
2018-05-10T21:07:43.570Z,95855.20
2018-05-10T21:10:11.815Z,95861.64
2018-05-10T21:12:43.269Z,95867.38
2018-05-10T21:15:11.494Z,95870.84
2018-05-10T21:17:39.846Z,95871.52
2018-05-10T21:20:08.859Z,95873.83
2018-05-10T21:22:37.118Z,95877.47
2018-05-10T21:25:05.390Z,95877.37
2018-05-10T21:27:34.389Z,95887.70
2018-05-10T21:30:02.626Z,95883.70
2018-05-10T21:32:30.938Z,95888.16
2018-05-10T21:34:59.169Z,95901.03
2018-05-10T21:37:27.413Z,95900.48
2018-05-10T21:39:55.657Z,95893.66
2018-05-10T21:42:24.658Z,95901.42
2018-05-10T21:44:53.666Z,95899.63
2018-05-10T21:47:21.901Z,95905.52
2018-05-10T21:50:09.273Z,95905.25
2018-05-10T21:52:37.513Z,95896.73
2018-05-10T21:55:06.529Z,95905.64
2018-05-10T21:57:35.913Z,95903.94
2018-05-10T22:00:05.014Z,95908.02
2018-05-10T22:02:34.110Z,95904.60
2018-05-10T22:05:03.123Z,95917.73
2018-05-10T22:07:31.378Z,95914.19
2018-05-10T22:10:00.386Z,95916.47
2018-05-10T22:12:28.986Z,95919.29
2018-05-10T22:14:57.954Z,95915.53
2018-05-10T22:17:26.196Z,95912.81
2018-05-10T22:19:54.444Z,95916.20
2018-05-10T22:22:22.682Z,95918.13
2018-05-10T22:24:51.153Z,95912.89
2018-05-10T22:27:20.150Z,95916.09
2018-05-10T22:29:48.386Z,95917.84
2018-05-10T22:32:16.626Z,95920.22
2018-05-10T22:34:44.858Z,95928.51
2018-05-10T22:37:13.870Z,95925.22
2018-05-10T22:39:42.102Z,95926.81
2018-05-10T22:42:10.339Z,95931.05
2018-05-10T22:44:38.589Z,95930.48
2018-05-10T22:47:07.598Z,95929.20
2018-05-10T22:49:35.845Z,95929.75
2018-05-10T22:52:04.859Z,95934.75
2018-05-10T22:54:33.101Z,95932.98
2018-05-10T22:57:01.352Z,95925.06
2018-05-10T22:59:29.610Z,95924.50
2018-05-10T23:01:57.842Z,95929.16
2018-05-10T23:04:26.855Z,95934.78
2018-05-10T23:06:55.869Z,95941.84
2018-05-10T23:09:24.116Z,95938.25
2018-05-10T23:11:53.125Z,95944.14
2018-05-10T23:16:55.854Z,95947.11
2018-05-10T23:19:24.181Z,95944.86
2018-05-10T23:21:53.288Z,95945.80
2018-05-10T23:24:22.277Z,95940.32
2018-05-10T23:26:50.508Z,95940.13
2018-05-10T23:29:18.765Z,95949.19
2018-05-10T23:31:46.989Z,95942.40
2018-05-10T23:34:16.095Z,95945.03
2018-05-10T23:36:45.106Z,95935.05
2018-05-10T23:39:13.337Z,95944.61
2018-05-10T23:41:41.581Z,95935.39
2018-05-10T23:44:09.830Z,95938.86
2018-05-10T23:46:38.058Z,95937.27
2018-05-10T23:49:06.302Z,95944.03
2018-05-10T23:51:34.541Z,95942.31
2018-05-10T23:54:03.533Z,95936.47
2018-05-10T23:56:31.777Z,95946.30
2018-05-10T23:59:00.285Z,95941.50
